sensor_id;sensor_type;location;lat;lon;timestamp;pressure;altitude;pressure_sealevel;temperature;humidity
40502;BME280;29631;49.168;9.848;2022-12-19T00:00:47;97576.72;;;3.57;73.50
40502;BME280;29631;49.168;9.848;2022-12-19T00:03:14;97561.09;;;3.47;72.55
40502;BME280;29631;49.168;9.848;2022-12-19T00:05:40;97567.00;;;3.49;73.48
40502;BME280;29631;49.168;9.848;2022-12-19T00:08:14;97556.28;;;3.52;72.92
40502;BME280;29631;49.168;9.848;2022-12-19T00:10:41;97545.19;;;3.50;73.09
40502;BME280;29631;49.168;9.848;2022-12-19T00:13:07;97545.84;;;3.52;73.25
40502;BME280;29631;49.168;9.848;2022-12-19T00:15:34;97528.75;;;3.40;72.60
40502;BME280;29631;49.168;9.848;2022-12-19T00:18:00;97522.97;;;3.46;72.11
40502;BME280;29631;49.168;9.848;2022-12-19T00:20:26;97543.00;;;3.55;72.68
40502;BME280;29631;49.168;9.848;2022-12-19T00:22:51;97542.69;;;3.58;73.02
40502;BME280;29631;49.168;9.848;2022-12-19T00:25:17;97525.97;;;3.51;72.96
40502;BME280;29631;49.168;9.848;2022-12-19T00:27:43;97527.91;;;3.49;72.38
40502;BME280;29631;49.168;9.848;2022-12-19T00:30:10;97555.72;;;3.58;72.90
40502;BME280;29631;49.168;9.848;2022-12-19T00:32:36;97558.06;;;3.61;73.56
40502;BME280;29631;49.168;9.848;2022-12-19T00:35:02;97559.44;;;3.56;73.47
40502;BME280;29631;49.168;9.848;2022-12-19T00:37:28;97583.97;;;3.72;73.48
40502;BME280;29631;49.168;9.848;2022-12-19T00:39:54;97588.22;;;3.73;72.64
40502;BME280;29631;49.168;9.848;2022-12-19T00:42:19;97580.25;;;3.65;72.83
40502;BME280;29631;49.168;9.848;2022-12-19T00:44:46;97599.47;;;3.83;73.39
40502;BME280;29631;49.168;9.848;2022-12-19T00:47:12;97586.97;;;3.77;73.49
40502;BME280;29631;49.168;9.848;2022-12-19T00:49:38;97586.31;;;3.75;72.41
40502;BME280;29631;49.168;9.848;2022-12-19T00:52:03;97573.38;;;3.73;72.63
40502;BME280;29631;49.168;9.848;2022-12-19T00:54:29;97561.91;;;3.66;72.75
40502;BME280;29631;49.168;9.848;2022-12-19T00:56:55;97566.00;;;3.69;73.76
40502;BME280;29631;49.168;9.848;2022-12-19T00:59:21;97586.00;;;3.78;73.55
40502;BME280;29631;49.168;9.848;2022-12-19T01:01:46;97618.22;;;3.86;73.37
40502;BME280;29631;49.168;9.848;2022-12-19T01:04:13;97583.41;;;3.78;73.18
40502;BME280;29631;49.168;9.848;2022-12-19T01:06:39;97569.28;;;3.71;72.56
40502;BME280;29631;49.168;9.848;2022-12-19T01:09:05;97577.22;;;3.79;73.37
40502;BME280;29631;49.168;9.848;2022-12-19T01:11:31;97565.44;;;3.75;72.90
40502;BME280;29631;49.168;9.848;2022-12-19T01:14:15;97589.28;;;3.89;73.28
40502;BME280;29631;49.168;9.848;2022-12-19T01:16:41;97602.72;;;3.94;73.16
40502;BME280;29631;49.168;9.848;2022-12-19T01:19:07;97597.38;;;3.96;72.79
40502;BME280;29631;49.168;9.848;2022-12-19T01:21:32;97565.97;;;3.88;73.26
40502;BME280;29631;49.168;9.848;2022-12-19T01:23:58;97572.25;;;3.95;72.90
40502;BME280;29631;49.168;9.848;2022-12-19T01:26:24;97568.22;;;4.10;73.33
40502;BME280;29631;49.168;9.848;2022-12-19T01:28:49;97571.13;;;4.07;73.64
40502;BME280;29631;49.168;9.848;2022-12-19T01:31:15;97571.41;;;4.04;73.21
40502;BME280;29631;49.168;9.848;2022-12-19T01:33:41;97561.81;;;4.04;73.13
40502;BME280;29631;49.168;9.848;2022-12-19T01:36:07;97537.94;;;3.90;73.17
40502;BME280;29631;49.168;9.848;2022-12-19T01:38:36;97556.59;;;4.04;73.56
40502;BME280;29631;49.168;9.848;2022-12-19T01:41:03;97518.22;;;3.78;72.83
40502;BME280;29631;49.168;9.848;2022-12-19T01:43:51;97536.06;;;3.82;73.28
40502;BME280;29631;49.168;9.848;2022-12-19T01:48:54;97540.19;;;3.75;73.76
40502;BME280;29631;49.168;9.848;2022-12-19T01:51:23;97548.13;;;3.83;73.25
40502;BME280;29631;49.168;9.848;2022-12-19T01:54:01;97551.84;;;3.81;73.16
40502;BME280;29631;49.168;9.848;2022-12-19T01:56:34;97533.78;;;3.70;72.94
40502;BME280;29631;49.168;9.848;2022-12-19T01:59:09;97565.56;;;3.83;72.83
40502;BME280;29631;49.168;9.848;2022-12-19T02:01:38;97553.38;;;3.74;73.24
40502;BME280;29631;49.168;9.848;2022-12-19T02:04:05;97528.44;;;3.62;73.80
40502;BME280;29631;49.168;9.848;2022-12-19T02:06:32;97551.44;;;3.85;73.57
40502;BME280;29631;49.168;9.848;2022-12-19T02:08:59;97558.56;;;3.83;73.57
40502;BME280;29631;49.168;9.848;2022-12-19T02:11:26;97531.94;;;3.80;73.89
40502;BME280;29631;49.168;9.848;2022-12-19T02:13:52;97508.50;;;3.80;73.68
40502;BME280;29631;49.168;9.848;2022-12-19T02:31:28;97519.00;;;3.97;74.25
40502;BME280;29631;49.168;9.848;2022-12-19T02:34:09;97501.94;;;4.03;73.35
40502;BME280;29631;49.168;9.848;2022-12-19T02:36:45;97482.72;;;4.04;74.28
40502;BME280;29631;49.168;9.848;2022-12-19T02:39:51;97485.06;;;4.07;74.42
40502;BME280;29631;49.168;9.848;2022-12-19T02:42:29;97477.22;;;4.07;74.56
40502;BME280;29631;49.168;9.848;2022-12-19T02:44:56;97482.94;;;4.20;74.09
40502;BME280;29631;49.168;9.848;2022-12-19T02:47:23;97475.00;;;4.12;73.65
40502;BME280;29631;49.168;9.848;2022-12-19T02:49:49;97477.22;;;4.07;73.68
40502;BME280;29631;49.168;9.848;2022-12-19T02:54:44;97468.13;;;4.11;73.54
40502;BME280;29631;49.168;9.848;2022-12-19T02:57:21;97466.22;;;4.13;74.22
40502;BME280;29631;49.168;9.848;2022-12-19T03:00:07;97484.69;;;4.19;74.04
40502;BME280;29631;49.168;9.848;2022-12-19T03:03:19;97514.22;;;4.20;73.50
40502;BME280;29631;49.168;9.848;2022-12-19T03:08:46;97510.94;;;4.18;74.27
40502;BME280;29631;49.168;9.848;2022-12-19T03:11:18;97503.41;;;4.15;73.58
40502;BME280;29631;49.168;9.848;2022-12-19T03:13:53;97500.28;;;4.11;73.83
40502;BME280;29631;49.168;9.848;2022-12-19T03:16:20;97504.38;;;4.14;73.61
40502;BME280;29631;49.168;9.848;2022-12-19T03:18:46;97509.97;;;4.19;74.01
40502;BME280;29631;49.168;9.848;2022-12-19T03:21:20;97523.25;;;4.25;73.86
40502;BME280;29631;49.168;9.848;2022-12-19T03:23:49;97520.78;;;4.24;74.29
40502;BME280;29631;49.168;9.848;2022-12-19T03:26:20;97486.25;;;4.12;73.53
40502;BME280;29631;49.168;9.848;2022-12-19T03:29:12;97505.50;;;4.28;74.35
40502;BME280;29631;49.168;9.848;2022-12-19T03:31:41;97504.19;;;4.25;74.19
40502;BME280;29631;49.168;9.848;2022-12-19T03:34:30;97499.66;;;4.27;74.20
40502;BME280;29631;49.168;9.848;2022-12-19T03:37:02;97496.94;;;4.19;74.24
40502;BME280;29631;49.168;9.848;2022-12-19T03:39:30;97492.00;;;4.16;74.21
40502;BME280;29631;49.168;9.848;2022-12-19T03:41:58;97497.22;;;4.16;74.22
40502;BME280;29631;49.168;9.848;2022-12-19T03:44:44;97519.16;;;4.23;73.73
40502;BME280;29631;49.168;9.848;2022-12-19T03:47:30;97506.09;;;4.23;73.91
40502;BME280;29631;49.168;9.848;2022-12-19T03:49:58;97486.41;;;4.11;74.17
40502;BME280;29631;49.168;9.848;2022-12-19T03:52:38;97424.03;;;3.63;73.91
40502;BME280;29631;49.168;9.848;2022-12-19T03:55:41;97493.63;;;4.17;74.62
40502;BME280;29631;49.168;9.848;2022-12-19T03:58:16;97488.72;;;4.14;73.78
40502;BME280;29631;49.168;9.848;2022-12-19T04:00:45;97493.94;;;4.14;74.68
40502;BME280;29631;49.168;9.848;2022-12-19T04:03:14;97490.53;;;4.04;74.27
40502;BME280;29631;49.168;9.848;2022-12-19T04:05:42;97535.63;;;4.23;74.42
40502;BME280;29631;49.168;9.848;2022-12-19T04:08:11;97549.63;;;4.22;74.43
40502;BME280;29631;49.168;9.848;2022-12-19T04:10:47;97521.63;;;4.24;75.34
40502;BME280;29631;49.168;9.848;2022-12-19T04:13:19;97521.84;;;4.30;74.61
40502;BME280;29631;49.168;9.848;2022-12-19T04:18:25;97551.44;;;4.48;75.22
40502;BME280;29631;49.168;9.848;2022-12-19T04:21:01;97544.97;;;4.52;74.35
40502;BME280;29631;49.168;9.848;2022-12-19T04:23:56;97525.84;;;4.52;74.50
40502;BME280;29631;49.168;9.848;2022-12-19T04:26:23;97499.28;;;4.39;74.50
40502;BME280;29631;49.168;9.848;2022-12-19T04:28:58;97455.19;;;4.19;75.13
40502;BME280;29631;49.168;9.848;2022-12-19T04:31:26;97524.16;;;4.60;74.16
40502;BME280;29631;49.168;9.848;2022-12-19T04:33:51;97527.44;;;4.62;74.34
40502;BME280;29631;49.168;9.848;2022-12-19T04:36:17;97529.56;;;4.76;75.04
40502;BME280;29631;49.168;9.848;2022-12-19T04:38:43;97509.59;;;4.58;74.26
40502;BME280;29631;49.168;9.848;2022-12-19T04:41:09;97529.84;;;4.73;74.90
40502;BME280;29631;49.168;9.848;2022-12-19T04:43:35;97516.41;;;4.68;75.30
40502;BME280;29631;49.168;9.848;2022-12-19T04:46:00;97509.25;;;4.70;74.87
40502;BME280;29631;49.168;9.848;2022-12-19T04:48:26;97488.06;;;4.56;74.27
40502;BME280;29631;49.168;9.848;2022-12-19T04:50:52;97505.16;;;4.68;74.56
40502;BME280;29631;49.168;9.848;2022-12-19T04:53:17;97518.84;;;4.79;74.86
40502;BME280;29631;49.168;9.848;2022-12-19T04:55:43;97514.16;;;4.73;74.62
40502;BME280;29631;49.168;9.848;2022-12-19T04:58:09;97519.91;;;4.77;74.83
40502;BME280;29631;49.168;9.848;2022-12-19T05:00:35;97487.31;;;4.63;74.97
40502;BME280;29631;49.168;9.848;2022-12-19T05:03:01;97502.41;;;4.69;74.12
40502;BME280;29631;49.168;9.848;2022-12-19T05:05:26;97521.44;;;4.79;74.68
40502;BME280;29631;49.168;9.848;2022-12-19T05:07:52;97445.50;;;4.28;74.77
40502;BME280;29631;49.168;9.848;2022-12-19T05:10:18;97517.19;;;4.78;75.30
40502;BME280;29631;49.168;9.848;2022-12-19T05:12:43;97517.56;;;4.83;75.25
40502;BME280;29631;49.168;9.848;2022-12-19T05:15:09;97510.84;;;4.81;74.98
40502;BME280;29631;49.168;9.848;2022-12-19T05:17:36;97508.06;;;4.82;74.60
40502;BME280;29631;49.168;9.848;2022-12-19T05:20:03;97520.44;;;4.80;75.14
40502;BME280;29631;49.168;9.848;2022-12-19T05:22:29;97514.41;;;4.80;75.35
40502;BME280;29631;49.168;9.848;2022-12-19T05:24:54;97513.28;;;4.82;75.21
40502;BME280;29631;49.168;9.848;2022-12-19T05:27:20;97491.16;;;4.69;75.05
40502;BME280;29631;49.168;9.848;2022-12-19T05:29:46;97509.41;;;4.86;75.24
40502;BME280;29631;49.168;9.848;2022-12-19T05:32:12;97491.66;;;4.72;75.03
40502;BME280;29631;49.168;9.848;2022-12-19T05:34:37;97502.84;;;4.82;74.55
40502;BME280;29631;49.168;9.848;2022-12-19T05:37:03;97492.19;;;4.76;74.95
40502;BME280;29631;49.168;9.848;2022-12-19T05:39:29;97501.78;;;4.75;75.42
40502;BME280;29631;49.168;9.848;2022-12-19T05:41:55;97496.28;;;4.78;75.04
40502;BME280;29631;49.168;9.848;2022-12-19T05:44:21;97409.97;;;4.28;75.16
40502;BME280;29631;49.168;9.848;2022-12-19T05:46:46;97496.28;;;4.78;74.82
40502;BME280;29631;49.168;9.848;2022-12-19T05:49:12;97457.19;;;4.51;75.47
40502;BME280;29631;49.168;9.848;2022-12-19T05:51:41;97462.63;;;4.58;75.61
40502;BME280;29631;49.168;9.848;2022-12-19T05:54:06;97497.63;;;4.82;75.84
40502;BME280;29631;49.168;9.848;2022-12-19T05:56:32;97496.28;;;4.78;76.00
40502;BME280;29631;49.168;9.848;2022-12-19T05:58:58;97483.97;;;4.71;74.91
40502;BME280;29631;49.168;9.848;2022-12-19T06:01:26;97489.72;;;4.74;75.88
40502;BME280;29631;49.168;9.848;2022-12-19T06:03:53;97491.06;;;4.78;75.71
40502;BME280;29631;49.168;9.848;2022-12-19T06:06:23;97504.78;;;4.80;76.15
40502;BME280;29631;49.168;9.848;2022-12-19T06:08:57;97468.78;;;4.66;75.66
40502;BME280;29631;49.168;9.848;2022-12-19T06:11:23;97479.94;;;4.76;76.33
40502;BME280;29631;49.168;9.848;2022-12-19T06:13:50;97482.78;;;4.83;75.69
40502;BME280;29631;49.168;9.848;2022-12-19T06:16:19;97483.59;;;4.83;76.28
40502;BME280;29631;49.168;9.848;2022-12-19T06:18:45;97472.19;;;4.84;76.45
40502;BME280;29631;49.168;9.848;2022-12-19T06:21:18;97451.50;;;4.73;76.10
40502;BME280;29631;49.168;9.848;2022-12-19T06:23:45;97455.16;;;4.80;76.43
40502;BME280;29631;49.168;9.848;2022-12-19T06:26:14;97479.13;;;4.93;75.74
40502;BME280;29631;49.168;9.848;2022-12-19T06:28:41;97439.28;;;4.74;75.94
40502;BME280;29631;49.168;9.848;2022-12-19T06:31:06;97419.38;;;4.55;76.25
40502;BME280;29631;49.168;9.848;2022-12-19T06:33:33;97475.41;;;4.96;76.71
40502;BME280;29631;49.168;9.848;2022-12-19T06:36:03;97465.09;;;4.94;75.92
40502;BME280;29631;49.168;9.848;2022-12-19T06:38:30;97469.72;;;5.00;76.68
40502;BME280;29631;49.168;9.848;2022-12-19T06:40:56;97474.13;;;5.00;75.86
40502;BME280;29631;49.168;9.848;2022-12-19T06:43:40;97466.44;;;4.98;75.90
40502;BME280;29631;49.168;9.848;2022-12-19T06:46:07;97456.28;;;4.95;76.29
40502;BME280;29631;49.168;9.848;2022-12-19T06:48:33;97467.50;;;5.05;75.95
40502;BME280;29631;49.168;9.848;2022-12-19T06:50:59;97447.03;;;5.01;76.40
40502;BME280;29631;49.168;9.848;2022-12-19T06:53:25;97455.06;;;5.07;76.62
40502;BME280;29631;49.168;9.848;2022-12-19T06:55:54;97480.38;;;5.24;76.88
40502;BME280;29631;49.168;9.848;2022-12-19T06:58:20;97465.44;;;5.16;76.21
40502;BME280;29631;49.168;9.848;2022-12-19T07:00:46;97427.72;;;4.94;76.22
40502;BME280;29631;49.168;9.848;2022-12-19T07:03:25;97454.19;;;5.16;76.93
40502;BME280;29631;49.168;9.848;2022-12-19T07:05:53;97478.47;;;5.34;77.00
40502;BME280;29631;49.168;9.848;2022-12-19T07:08:19;97460.34;;;5.32;76.66
40502;BME280;29631;49.168;9.848;2022-12-19T07:10:45;97446.94;;;5.27;76.32
40502;BME280;29631;49.168;9.848;2022-12-19T07:13:11;97451.81;;;5.30;76.25
40502;BME280;29631;49.168;9.848;2022-12-19T07:15:37;97435.22;;;5.14;76.73
40502;BME280;29631;49.168;9.848;2022-12-19T07:18:05;97366.25;;;4.82;76.81
40502;BME280;29631;49.168;9.848;2022-12-19T07:20:33;97471.97;;;5.38;76.89
40502;BME280;29631;49.168;9.848;2022-12-19T07:23:01;97453.66;;;5.38;76.98
40502;BME280;29631;49.168;9.848;2022-12-19T07:25:28;97470.09;;;5.48;77.00
40502;BME280;29631;49.168;9.848;2022-12-19T07:27:54;97487.47;;;5.57;77.26
40502;BME280;29631;49.168;9.848;2022-12-19T07:30:20;97467.53;;;5.56;77.13
40502;BME280;29631;49.168;9.848;2022-12-19T07:32:46;97456.69;;;5.51;76.78
40502;BME280;29631;49.168;9.848;2022-12-19T07:35:12;97449.22;;;5.56;76.77
40502;BME280;29631;49.168;9.848;2022-12-19T07:37:39;97473.16;;;5.69;77.13
40502;BME280;29631;49.168;9.848;2022-12-19T07:40:05;97472.03;;;5.71;76.97
40502;BME280;29631;49.168;9.848;2022-12-19T07:42:31;97437.81;;;5.57;77.41
40502;BME280;29631;49.168;9.848;2022-12-19T07:44:57;97451.63;;;5.74;76.85
40502;BME280;29631;49.168;9.848;2022-12-19T07:47:22;97421.78;;;5.60;77.33
40502;BME280;29631;49.168;9.848;2022-12-19T07:49:48;97495.22;;;5.91;76.82
40502;BME280;29631;49.168;9.848;2022-12-19T07:52:14;97459.56;;;5.82;77.50
40502;BME280;29631;49.168;9.848;2022-12-19T07:54:39;97471.63;;;5.83;77.50
40502;BME280;29631;49.168;9.848;2022-12-19T07:57:05;97503.31;;;6.06;77.01
40502;BME280;29631;49.168;9.848;2022-12-19T07:59:31;97495.94;;;6.01;76.94
40502;BME280;29631;49.168;9.848;2022-12-19T08:01:57;97490.59;;;6.11;77.12
40502;BME280;29631;49.168;9.848;2022-12-19T08:04:22;97458.31;;;5.94;77.08
40502;BME280;29631;49.168;9.848;2022-12-19T08:06:48;97495.00;;;6.10;76.78
40502;BME280;29631;49.168;9.848;2022-12-19T08:09:14;97494.19;;;6.10;76.95
40502;BME280;29631;49.168;9.848;2022-12-19T08:11:40;97466.78;;;5.96;77.04
40502;BME280;29631;49.168;9.848;2022-12-19T08:14:05;97458.81;;;5.98;77.06
40502;BME280;29631;49.168;9.848;2022-12-19T08:16:31;97474.91;;;6.11;77.59
40502;BME280;29631;49.168;9.848;2022-12-19T08:18:57;97486.84;;;6.21;77.82
40502;BME280;29631;49.168;9.848;2022-12-19T08:21:23;97479.50;;;6.17;77.68
40502;BME280;29631;49.168;9.848;2022-12-19T08:23:49;97488.50;;;6.22;77.10
40502;BME280;29631;49.168;9.848;2022-12-19T08:26:17;97497.69;;;6.26;77.75
40502;BME280;29631;49.168;9.848;2022-12-19T08:28:53;97503.28;;;6.31;77.99
40502;BME280;29631;49.168;9.848;2022-12-19T08:31:20;97470.16;;;6.14;77.60
40502;BME280;29631;49.168;9.848;2022-12-19T08:33:49;97512.31;;;6.37;77.92
40502;BME280;29631;49.168;9.848;2022-12-19T08:36:16;97488.38;;;6.32;78.07
40502;BME280;29631;49.168;9.848;2022-12-19T08:38:47;97484.16;;;6.39;77.57
40502;BME280;29631;49.168;9.848;2022-12-19T08:41:15;97419.00;;;5.86;78.06
40502;BME280;29631;49.168;9.848;2022-12-19T08:43:41;97472.38;;;6.35;77.66
40502;BME280;29631;49.168;9.848;2022-12-19T08:46:08;97502.34;;;6.48;78.45
40502;BME280;29631;49.168;9.848;2022-12-19T08:48:35;97484.34;;;6.45;78.36
40502;BME280;29631;49.168;9.848;2022-12-19T08:51:07;97470.25;;;6.38;77.70
40502;BME280;29631;49.168;9.848;2022-12-19T08:53:35;97476.19;;;6.56;78.31
40502;BME280;29631;49.168;9.848;2022-12-19T08:56:15;97487.84;;;6.61;78.09
40502;BME280;29631;49.168;9.848;2022-12-19T08:58:41;97452.91;;;6.45;78.14
40502;BME280;29631;49.168;9.848;2022-12-19T09:01:14;97501.44;;;6.65;78.47
40502;BME280;29631;49.168;9.848;2022-12-19T09:03:40;97463.72;;;6.50;78.06
40502;BME280;29631;49.168;9.848;2022-12-19T09:06:09;97480.78;;;6.62;78.30
40502;BME280;29631;49.168;9.848;2022-12-19T09:08:35;97465.06;;;6.62;78.17
40502;BME280;29631;49.168;9.848;2022-12-19T09:11:10;97498.19;;;6.79;78.80
40502;BME280;29631;49.168;9.848;2022-12-19T09:13:38;97475.41;;;6.71;77.94
40502;BME280;29631;49.168;9.848;2022-12-19T09:16:20;97467.06;;;6.76;78.75
40502;BME280;29631;49.168;9.848;2022-12-19T09:18:49;97483.78;;;6.83;78.55
40502;BME280;29631;49.168;9.848;2022-12-19T09:21:20;97454.28;;;6.73;78.61
40502;BME280;29631;49.168;9.848;2022-12-19T09:23:49;97435.78;;;6.66;78.12
40502;BME280;29631;49.168;9.848;2022-12-19T09:26:15;97444.81;;;6.72;77.89
40502;BME280;29631;49.168;9.848;2022-12-19T09:28:41;97475.59;;;6.94;78.86
40502;BME280;29631;49.168;9.848;2022-12-19T09:31:16;97484.78;;;7.06;78.50
40502;BME280;29631;49.168;9.848;2022-12-19T09:33:42;97446.78;;;6.94;78.69
40502;BME280;29631;49.168;9.848;2022-12-19T09:36:18;97458.56;;;7.06;78.67
40502;BME280;29631;49.168;9.848;2022-12-19T09:38:44;97461.84;;;7.08;78.34
40502;BME280;29631;49.168;9.848;2022-12-19T09:47:13;97461.19;;;7.21;78.36
40502;BME280;29631;49.168;9.848;2022-12-19T09:49:43;97438.59;;;7.20;78.48
40502;BME280;29631;49.168;9.848;2022-12-19T09:52:29;97440.56;;;7.26;79.10
40502;BME280;29631;49.168;9.848;2022-12-19T09:57:51;97444.16;;;7.33;78.37
40502;BME280;29631;49.168;9.848;2022-12-19T10:00:21;97448.06;;;7.37;79.09
40502;BME280;29631;49.168;9.848;2022-12-19T10:03:20;97468.41;;;7.43;78.61
40502;BME280;29631;49.168;9.848;2022-12-19T10:06:17;97461.00;;;7.55;78.47
40502;BME280;29631;49.168;9.848;2022-12-19T10:08:43;97436.28;;;7.49;78.91
40502;BME280;29631;49.168;9.848;2022-12-19T10:12:01;97456.91;;;7.60;79.54
40502;BME280;29631;49.168;9.848;2022-12-19T10:14:50;97448.69;;;7.63;78.99
40502;BME280;29631;49.168;9.848;2022-12-19T10:17:44;97447.22;;;7.69;79.17
40502;BME280;29631;49.168;9.848;2022-12-19T10:20:36;97367.81;;;7.20;79.17
40502;BME280;29631;49.168;9.848;2022-12-19T10:26:22;97433.72;;;7.80;78.82
40502;BME280;29631;49.168;9.848;2022-12-19T10:32:25;97429.91;;;7.90;78.82
40502;BME280;29631;49.168;9.848;2022-12-19T10:34:53;97442.69;;;8.01;78.98
40502;BME280;29631;49.168;9.848;2022-12-19T10:37:44;97435.13;;;8.06;79.07
40502;BME280;29631;49.168;9.848;2022-12-19T10:45:21;97419.38;;;8.06;78.38
40502;BME280;29631;49.168;9.848;2022-12-19T10:47:53;97433.78;;;8.18;78.99
40502;BME280;29631;49.168;9.848;2022-12-19T10:50:24;97418.22;;;8.16;79.12
40502;BME280;29631;49.168;9.848;2022-12-19T10:55:47;97416.41;;;8.17;79.31
40502;BME280;29631;49.168;9.848;2022-12-19T10:58:31;97409.19;;;8.11;79.46
40502;BME280;29631;49.168;9.848;2022-12-19T11:01:14;97405.09;;;8.16;79.47
40502;BME280;29631;49.168;9.848;2022-12-19T11:03:50;97400.94;;;8.22;79.78
40502;BME280;29631;49.168;9.848;2022-12-19T11:06:48;97396.81;;;8.27;79.91
40502;BME280;29631;49.168;9.848;2022-12-19T11:09:20;97388.44;;;8.32;79.60
40502;BME280;29631;49.168;9.848;2022-12-19T11:11:57;97379.56;;;8.33;79.70
40502;BME280;29631;49.168;9.848;2022-12-19T11:14:27;97372.66;;;8.32;79.68
40502;BME280;29631;49.168;9.848;2022-12-19T11:16:53;97313.88;;;8.02;79.88
40502;BME280;29631;49.168;9.848;2022-12-19T11:21:52;97398.13;;;8.54;78.81
40502;BME280;29631;49.168;9.848;2022-12-19T11:24:29;97390.09;;;8.55;79.27
40502;BME280;29631;49.168;9.848;2022-12-19T11:26:58;97362.03;;;8.48;79.67
40502;BME280;29631;49.168;9.848;2022-12-19T11:29:43;97381.34;;;8.63;80.02
40502;BME280;29631;49.168;9.848;2022-12-19T11:32:38;97371.53;;;8.57;79.12
40502;BME280;29631;49.168;9.848;2022-12-19T11:35:23;97359.03;;;8.59;79.22
40502;BME280;29631;49.168;9.848;2022-12-19T11:38:00;97365.09;;;8.59;78.98
40502;BME280;29631;49.168;9.848;2022-12-19T11:40:41;97346.03;;;8.57;79.09
40502;BME280;29631;49.168;9.848;2022-12-19T11:43:35;97368.09;;;8.78;79.50
40502;BME280;29631;49.168;9.848;2022-12-19T11:49:15;97345.56;;;8.76;79.63
40502;BME280;29631;49.168;9.848;2022-12-19T11:52:39;97359.13;;;8.87;78.88
40502;BME280;29631;49.168;9.848;2022-12-19T11:55:35;97357.94;;;8.90;79.19
40502;BME280;29631;49.168;9.848;2022-12-19T11:58:10;97333.75;;;8.94;78.94
40502;BME280;29631;49.168;9.848;2022-12-19T12:01:06;97345.22;;;9.01;79.98
40502;BME280;29631;49.168;9.848;2022-12-19T12:03:54;97335.03;;;8.98;78.65
40502;BME280;29631;49.168;9.848;2022-12-19T12:06:32;97340.28;;;8.98;79.62
40502;BME280;29631;49.168;9.848;2022-12-19T12:09:42;97344.50;;;9.07;80.02
40502;BME280;29631;49.168;9.848;2022-12-19T12:12:23;97342.50;;;9.09;79.71
40502;BME280;29631;49.168;9.848;2022-12-19T12:23:21;97323.84;;;9.33;79.69
40502;BME280;29631;49.168;9.848;2022-12-19T12:34:39;97335.09;;;9.56;78.95
40502;BME280;29631;49.168;9.848;2022-12-19T12:37:36;97318.41;;;9.49;79.32
40502;BME280;29631;49.168;9.848;2022-12-19T12:40:42;97324.22;;;9.59;78.85
40502;BME280;29631;49.168;9.848;2022-12-19T12:46:26;97311.53;;;9.48;79.26
40502;BME280;29631;49.168;9.848;2022-12-19T12:49:14;97285.47;;;9.38;80.14
40502;BME280;29631;49.168;9.848;2022-12-19T12:51:46;97302.25;;;9.52;79.95
40502;BME280;29631;49.168;9.848;2022-12-19T12:54:14;97304.63;;;9.47;80.15
40502;BME280;29631;49.168;9.848;2022-12-19T12:56:41;97325.22;;;9.58;79.84
40502;BME280;29631;49.168;9.848;2022-12-19T12:59:26;97308.78;;;9.56;79.38
40502;BME280;29631;49.168;9.848;2022-12-19T13:02:19;97283.19;;;9.50;80.17
40502;BME280;29631;49.168;9.848;2022-12-19T13:04:59;97306.31;;;9.69;79.44
40502;BME280;29631;49.168;9.848;2022-12-19T13:07:49;97276.50;;;9.62;79.42
40502;BME280;29631;49.168;9.848;2022-12-19T13:10:26;97299.69;;;9.73;79.33
40502;BME280;29631;49.168;9.848;2022-12-19T13:13:08;97282.00;;;9.67;79.75
40502;BME280;29631;49.168;9.848;2022-12-19T13:15:42;97297.72;;;9.75;78.88
40502;BME280;29631;49.168;9.848;2022-12-19T13:18:28;97309.09;;;9.82;79.96
40502;BME280;29631;49.168;9.848;2022-12-19T13:20:55;97295.69;;;9.77;80.23
40502;BME280;29631;49.168;9.848;2022-12-19T13:25:58;97306.22;;;9.77;79.64
40502;BME280;29631;49.168;9.848;2022-12-19T13:36:47;97281.09;;;9.74;79.43
40502;BME280;29631;49.168;9.848;2022-12-19T13:39:36;97287.25;;;9.81;80.23
40502;BME280;29631;49.168;9.848;2022-12-19T13:42:14;97278.09;;;9.77;79.43
40502;BME280;29631;49.168;9.848;2022-12-19T13:45:06;97289.22;;;9.79;79.17
40502;BME280;29631;49.168;9.848;2022-12-19T13:47:39;97283.06;;;9.72;79.37
40502;BME280;29631;49.168;9.848;2022-12-19T13:52:50;97297.78;;;9.81;79.85
40502;BME280;29631;49.168;9.848;2022-12-19T13:55:16;97291.72;;;9.81;79.57
40502;BME280;29631;49.168;9.848;2022-12-19T13:57:41;97287.69;;;9.85;79.70
40502;BME280;29631;49.168;9.848;2022-12-19T14:00:12;97277.09;;;9.78;78.99
40502;BME280;29631;49.168;9.848;2022-12-19T14:02:50;97294.22;;;9.89;79.22
40502;BME280;29631;49.168;9.848;2022-12-19T14:05:26;97295.84;;;9.90;80.26
40502;BME280;29631;49.168;9.848;2022-12-19T14:07:53;97294.59;;;9.86;79.71
40502;BME280;29631;49.168;9.848;2022-12-19T14:10:43;97269.56;;;9.75;79.31
40502;BME280;29631;49.168;9.848;2022-12-19T14:13:21;97273.28;;;9.81;80.14
40502;BME280;29631;49.168;9.848;2022-12-19T14:16:13;97271.25;;;9.83;80.14
40502;BME280;29631;49.168;9.848;2022-12-19T14:18:38;97281.78;;;9.83;80.38
40502;BME280;29631;49.168;9.848;2022-12-19T14:21:25;97277.91;;;9.79;79.44
40502;BME280;29631;49.168;9.848;2022-12-19T14:24:10;97283.16;;;9.79;79.50
40502;BME280;29631;49.168;9.848;2022-12-19T14:26:37;97283.81;;;9.81;79.11
40502;BME280;29631;49.168;9.848;2022-12-19T14:29:13;97287.63;;;9.78;79.35
40502;BME280;29631;49.168;9.848;2022-12-19T14:31:42;97287.69;;;9.85;79.67
40502;BME280;29631;49.168;9.848;2022-12-19T14:34:21;97292.31;;;9.83;80.03
40502;BME280;29631;49.168;9.848;2022-12-19T14:36:52;97281.47;;;9.71;79.26
40502;BME280;29631;49.168;9.848;2022-12-19T14:39:22;97288.88;;;9.82;79.50
40502;BME280;29631;49.168;9.848;2022-12-19T14:41:50;97280.53;;;9.79;79.87
40502;BME280;29631;49.168;9.848;2022-12-19T14:44:54;97288.44;;;9.79;80.25
40502;BME280;29631;49.168;9.848;2022-12-19T14:47:34;97299.97;;;9.78;80.09
40502;BME280;29631;49.168;9.848;2022-12-19T14:50:00;97293.69;;;9.79;79.39
40502;BME280;29631;49.168;9.848;2022-12-19T14:52:43;97286.16;;;9.76;79.64
40502;BME280;29631;49.168;9.848;2022-12-19T14:57:47;97289.63;;;9.76;80.00
40502;BME280;29631;49.168;9.848;2022-12-19T15:00:32;97275.75;;;9.68;80.13
40502;BME280;29631;49.168;9.848;2022-12-19T15:03:07;97283.91;;;9.73;79.89
40502;BME280;29631;49.168;9.848;2022-12-19T15:05:33;97294.06;;;9.76;79.19
40502;BME280;29631;49.168;9.848;2022-12-19T15:07:59;97304.97;;;9.73;79.98